sensor_id;sensor_type;location;lat;lon;timestamp;P1;durP1;ratioP1;P2;durP2;ratioP2
27889;SDS011;15238;49.082;9.102;2023-06-24T00:01:07;5.78;;;4.80;;
27889;SDS011;15238;49.082;9.102;2023-06-24T00:03:07;7.88;;;5.07;;
27889;SDS011;15238;49.082;9.102;2023-06-24T00:05:08;6.32;;;4.50;;
27889;SDS011;15238;49.082;9.102;2023-06-24T00:07:08;6.65;;;5.10;;
27889;SDS011;15238;49.082;9.102;2023-06-24T00:09:09;6.13;;;4.78;;
27889;SDS011;15238;49.082;9.102;2023-06-24T00:11:09;8.15;;;5.20;;
27889;SDS011;15238;49.082;9.102;2023-06-24T00:13:11;7.40;;;4.70;;
27889;SDS011;15238;49.082;9.102;2023-06-24T00:15:11;8.90;;;4.70;;
27889;SDS011;15238;49.082;9.102;2023-06-24T00:17:12;6.53;;;4.40;;
27889;SDS011;15238;49.082;9.102;2023-06-24T00:19:12;5.78;;;4.57;;
27889;SDS011;15238;49.082;9.102;2023-06-24T00:21:13;7.97;;;5.10;;
27889;SDS011;15238;49.082;9.102;2023-06-24T00:23:17;6.20;;;4.68;;
27889;SDS011;15238;49.082;9.102;2023-06-24T00:25:25;6.30;;;5.05;;
27889;SDS011;15238;49.082;9.102;2023-06-24T00:27:26;10.18;;;5.07;;
27889;SDS011;15238;49.082;9.102;2023-06-24T00:29:26;8.52;;;5.47;;
27889;SDS011;15238;49.082;9.102;2023-06-24T00:31:27;9.60;;;5.60;;
27889;SDS011;15238;49.082;9.102;2023-06-24T00:33:27;7.95;;;5.95;;
27889;SDS011;15238;49.082;9.102;2023-06-24T00:35:28;8.52;;;4.97;;
27889;SDS011;15238;49.082;9.102;2023-06-24T00:37:28;6.78;;;4.82;;
27889;SDS011;15238;49.082;9.102;2023-06-24T00:39:29;5.70;;;4.75;;
27889;SDS011;15238;49.082;9.102;2023-06-24T00:41:30;10.98;;;4.95;;
27889;SDS011;15238;49.082;9.102;2023-06-24T00:43:31;7.55;;;5.18;;
27889;SDS011;15238;49.082;9.102;2023-06-24T00:45:31;8.18;;;4.97;;
27889;SDS011;15238;49.082;9.102;2023-06-24T00:47:32;7.38;;;4.63;;
27889;SDS011;15238;49.082;9.102;2023-06-24T00:49:33;6.38;;;4.82;;
27889;SDS011;15238;49.082;9.102;2023-06-24T00:51:34;6.97;;;5.05;;
27889;SDS011;15238;49.082;9.102;2023-06-24T00:53:36;8.55;;;5.20;;
27889;SDS011;15238;49.082;9.102;2023-06-24T00:55:37;7.20;;;5.10;;
27889;SDS011;15238;49.082;9.102;2023-06-24T00:57:38;8.45;;;5.20;;
27889;SDS011;15238;49.082;9.102;2023-06-24T00:59:40;9.65;;;4.70;;
27889;SDS011;15238;49.082;9.102;2023-06-24T01:01:43;6.75;;;5.18;;
27889;SDS011;15238;49.082;9.102;2023-06-24T01:03:45;5.68;;;4.75;;
27889;SDS011;15238;49.082;9.102;2023-06-24T01:05:46;8.23;;;4.68;;
27889;SDS011;15238;49.082;9.102;2023-06-24T01:07:47;7.00;;;4.72;;
27889;SDS011;15238;49.082;9.102;2023-06-24T01:09:54;9.30;;;4.65;;
27889;SDS011;15238;49.082;9.102;2023-06-24T01:11:55;6.97;;;4.43;;
27889;SDS011;15238;49.082;9.102;2023-06-24T01:13:56;7.10;;;4.35;;
27889;SDS011;15238;49.082;9.102;2023-06-24T01:15:58;7.18;;;4.68;;
27889;SDS011;15238;49.082;9.102;2023-06-24T01:22:15;8.30;;;5.00;;
27889;SDS011;15238;49.082;9.102;2023-06-24T01:24:41;7.70;;;4.90;;
27889;SDS011;15238;49.082;9.102;2023-06-24T01:27:58;5.93;;;4.25;;
27889;SDS011;15238;49.082;9.102;2023-06-24T01:36:15;5.20;;;3.90;;
27889;SDS011;15238;49.082;9.102;2023-06-24T01:38:22;7.13;;;4.65;;
27889;SDS011;15238;49.082;9.102;2023-06-24T01:40:30;10.20;;;3.95;;
27889;SDS011;15238;49.082;9.102;2023-06-24T01:42:35;6.13;;;4.25;;
27889;SDS011;15238;49.082;9.102;2023-06-24T01:44:38;5.22;;;4.15;;
27889;SDS011;15238;49.082;9.102;2023-06-24T01:46:44;7.90;;;4.40;;
27889;SDS011;15238;49.082;9.102;2023-06-24T01:48:48;6.95;;;4.88;;
27889;SDS011;15238;49.082;9.102;2023-06-24T01:51:03;5.72;;;4.40;;
27889;SDS011;15238;49.082;9.102;2023-06-24T01:53:08;10.52;;;4.50;;
27889;SDS011;15238;49.082;9.102;2023-06-24T01:55:09;4.28;;;3.78;;
27889;SDS011;15238;49.082;9.102;2023-06-24T01:57:14;5.25;;;4.13;;
27889;SDS011;15238;49.082;9.102;2023-06-24T01:59:16;5.57;;;4.20;;
27889;SDS011;15238;49.082;9.102;2023-06-24T02:01:18;5.40;;;3.85;;
27889;SDS011;15238;49.082;9.102;2023-06-24T02:03:20;7.25;;;4.68;;
27889;SDS011;15238;49.082;9.102;2023-06-24T02:05:22;5.38;;;4.20;;
27889;SDS011;15238;49.082;9.102;2023-06-24T02:07:25;7.63;;;4.50;;
27889;SDS011;15238;49.082;9.102;2023-06-24T02:09:26;5.40;;;4.40;;
27889;SDS011;15238;49.082;9.102;2023-06-24T02:11:29;7.82;;;3.78;;
27889;SDS011;15238;49.082;9.102;2023-06-24T02:13:33;6.38;;;4.13;;
27889;SDS011;15238;49.082;9.102;2023-06-24T02:15:35;4.72;;;4.22;;
27889;SDS011;15238;49.082;9.102;2023-06-24T02:17:38;6.68;;;4.25;;
27889;SDS011;15238;49.082;9.102;2023-06-24T02:19:39;7.95;;;5.07;;
27889;SDS011;15238;49.082;9.102;2023-06-24T02:21:42;7.65;;;5.18;;
27889;SDS011;15238;49.082;9.102;2023-06-24T02:23:43;5.43;;;4.80;;
27889;SDS011;15238;49.082;9.102;2023-06-24T02:25:44;10.00;;;5.10;;
27889;SDS011;15238;49.082;9.102;2023-06-24T02:27:45;7.10;;;4.93;;
27889;SDS011;15238;49.082;9.102;2023-06-24T02:29:46;8.35;;;5.22;;
27889;SDS011;15238;49.082;9.102;2023-06-24T02:31:48;8.35;;;5.05;;
27889;SDS011;15238;49.082;9.102;2023-06-24T02:33:48;10.65;;;5.28;;
27889;SDS011;15238;49.082;9.102;2023-06-24T02:35:49;6.32;;;5.25;;
27889;SDS011;15238;49.082;9.102;2023-06-24T02:37:49;6.28;;;4.95;;
27889;SDS011;15238;49.082;9.102;2023-06-24T02:39:50;7.90;;;5.22;;
27889;SDS011;15238;49.082;9.102;2023-06-24T02:41:50;6.88;;;5.57;;
27889;SDS011;15238;49.082;9.102;2023-06-24T02:43:51;7.50;;;6.10;;
27889;SDS011;15238;49.082;9.102;2023-06-24T02:45:51;9.27;;;5.10;;
27889;SDS011;15238;49.082;9.102;2023-06-24T02:47:53;9.25;;;5.40;;
27889;SDS011;15238;49.082;9.102;2023-06-24T02:49:56;10.18;;;5.75;;
27889;SDS011;15238;49.082;9.102;2023-06-24T02:51:57;6.53;;;5.20;;
27889;SDS011;15238;49.082;9.102;2023-06-24T02:53:58;7.50;;;4.90;;
27889;SDS011;15238;49.082;9.102;2023-06-24T02:56:00;6.88;;;4.63;;
27889;SDS011;15238;49.082;9.102;2023-06-24T02:58:03;8.30;;;5.18;;
27889;SDS011;15238;49.082;9.102;2023-06-24T03:00:08;7.43;;;5.10;;
27889;SDS011;15238;49.082;9.102;2023-06-24T03:02:12;6.20;;;5.25;;
27889;SDS011;15238;49.082;9.102;2023-06-24T03:04:12;8.80;;;5.25;;
27889;SDS011;15238;49.082;9.102;2023-06-24T03:06:13;6.88;;;5.40;;
27889;SDS011;15238;49.082;9.102;2023-06-24T03:08:17;7.43;;;4.65;;
27889;SDS011;15238;49.082;9.102;2023-06-24T03:10:18;8.07;;;5.20;;
27889;SDS011;15238;49.082;9.102;2023-06-24T03:12:18;7.28;;;5.15;;
27889;SDS011;15238;49.082;9.102;2023-06-24T03:14:19;6.90;;;5.18;;
27889;SDS011;15238;49.082;9.102;2023-06-24T03:16:19;11.10;;;5.78;;
27889;SDS011;15238;49.082;9.102;2023-06-24T03:18:20;9.65;;;6.15;;
27889;SDS011;15238;49.082;9.102;2023-06-24T03:20:21;10.30;;;5.63;;
27889;SDS011;15238;49.082;9.102;2023-06-24T03:22:21;9.43;;;5.28;;
27889;SDS011;15238;49.082;9.102;2023-06-24T03:24:22;7.47;;;5.88;;
27889;SDS011;15238;49.082;9.102;2023-06-24T03:26:22;7.50;;;5.57;;
27889;SDS011;15238;49.082;9.102;2023-06-24T03:28:23;7.32;;;5.43;;
27889;SDS011;15238;49.082;9.102;2023-06-24T03:30:23;9.55;;;5.53;;
27889;SDS011;15238;49.082;9.102;2023-06-24T03:32:24;6.50;;;5.70;;
27889;SDS011;15238;49.082;9.102;2023-06-24T03:34:24;11.23;;;5.43;;
27889;SDS011;15238;49.082;9.102;2023-06-24T03:36:27;7.72;;;5.57;;
27889;SDS011;15238;49.082;9.102;2023-06-24T03:38:27;6.90;;;4.85;;
27889;SDS011;15238;49.082;9.102;2023-06-24T03:40:28;9.48;;;5.82;;
27889;SDS011;15238;49.082;9.102;2023-06-24T03:42:28;6.05;;;4.97;;
27889;SDS011;15238;49.082;9.102;2023-06-24T03:44:29;8.45;;;5.15;;
27889;SDS011;15238;49.082;9.102;2023-06-24T03:46:30;9.30;;;4.93;;
27889;SDS011;15238;49.082;9.102;2023-06-24T03:48:32;8.40;;;5.05;;
27889;SDS011;15238;49.082;9.102;2023-06-24T03:50:33;6.47;;;4.43;;
27889;SDS011;15238;49.082;9.102;2023-06-24T03:52:34;8.13;;;4.82;;
27889;SDS011;15238;49.082;9.102;2023-06-24T03:54:34;6.55;;;5.47;;
27889;SDS011;15238;49.082;9.102;2023-06-24T03:56:35;6.40;;;5.20;;
27889;SDS011;15238;49.082;9.102;2023-06-24T03:58:35;9.98;;;5.63;;
27889;SDS011;15238;49.082;9.102;2023-06-24T04:00:36;7.85;;;5.43;;
27889;SDS011;15238;49.082;9.102;2023-06-24T04:02:40;10.93;;;5.93;;
27889;SDS011;15238;49.082;9.102;2023-06-24T04:04:41;6.60;;;5.57;;
27889;SDS011;15238;49.082;9.102;2023-06-24T04:06:42;7.07;;;5.20;;
27889;SDS011;15238;49.082;9.102;2023-06-24T04:08:42;9.00;;;6.22;;
27889;SDS011;15238;49.082;9.102;2023-06-24T04:10:43;9.02;;;6.20;;
27889;SDS011;15238;49.082;9.102;2023-06-24T04:12:44;8.23;;;5.82;;
27889;SDS011;15238;49.082;9.102;2023-06-24T04:14:45;11.57;;;6.07;;
27889;SDS011;15238;49.082;9.102;2023-06-24T04:16:46;7.63;;;5.53;;
27889;SDS011;15238;49.082;9.102;2023-06-24T04:18:46;14.00;;;6.75;;
27889;SDS011;15238;49.082;9.102;2023-06-24T04:20:47;8.82;;;6.18;;
27889;SDS011;15238;49.082;9.102;2023-06-24T04:22:48;8.80;;;5.68;;
27889;SDS011;15238;49.082;9.102;2023-06-24T04:24:49;7.53;;;4.88;;
27889;SDS011;15238;49.082;9.102;2023-06-24T04:26:49;9.98;;;5.55;;
27889;SDS011;15238;49.082;9.102;2023-06-24T04:28:50;6.90;;;5.13;;
27889;SDS011;15238;49.082;9.102;2023-06-24T04:30:51;7.35;;;5.03;;
27889;SDS011;15238;49.082;9.102;2023-06-24T04:32:52;6.78;;;5.60;;
27889;SDS011;15238;49.082;9.102;2023-06-24T04:34:52;6.65;;;5.18;;
27889;SDS011;15238;49.082;9.102;2023-06-24T04:36:53;7.03;;;5.43;;
27889;SDS011;15238;49.082;9.102;2023-06-24T04:38:54;8.07;;;5.05;;
27889;SDS011;15238;49.082;9.102;2023-06-24T04:40:54;8.85;;;5.20;;
27889;SDS011;15238;49.082;9.102;2023-06-24T04:42:55;8.07;;;5.18;;
27889;SDS011;15238;49.082;9.102;2023-06-24T04:44:55;10.82;;;5.32;;
27889;SDS011;15238;49.082;9.102;2023-06-24T04:46:56;9.05;;;5.18;;
27889;SDS011;15238;49.082;9.102;2023-06-24T04:48:56;10.85;;;5.57;;
27889;SDS011;15238;49.082;9.102;2023-06-24T04:50:57;9.15;;;5.22;;
27889;SDS011;15238;49.082;9.102;2023-06-24T04:52:58;9.20;;;5.18;;
27889;SDS011;15238;49.082;9.102;2023-06-24T04:54:58;7.82;;;5.45;;
27889;SDS011;15238;49.082;9.102;2023-06-24T04:56:59;9.32;;;5.50;;
27889;SDS011;15238;49.082;9.102;2023-06-24T04:59:00;9.38;;;5.88;;
27889;SDS011;15238;49.082;9.102;2023-06-24T05:01:00;11.40;;;5.97;;
27889;SDS011;15238;49.082;9.102;2023-06-24T05:03:01;10.00;;;5.32;;
27889;SDS011;15238;49.082;9.102;2023-06-24T05:05:02;8.20;;;5.10;;
27889;SDS011;15238;49.082;9.102;2023-06-24T05:07:02;7.43;;;5.30;;
27889;SDS011;15238;49.082;9.102;2023-06-24T05:09:03;8.02;;;5.63;;
27889;SDS011;15238;49.082;9.102;2023-06-24T05:11:03;7.70;;;5.47;;
27889;SDS011;15238;49.082;9.102;2023-06-24T05:13:05;6.30;;;5.15;;
27889;SDS011;15238;49.082;9.102;2023-06-24T05:15:06;9.93;;;5.70;;
27889;SDS011;15238;49.082;9.102;2023-06-24T05:17:07;8.05;;;4.93;;
27889;SDS011;15238;49.082;9.102;2023-06-24T05:19:07;7.95;;;5.05;;
27889;SDS011;15238;49.082;9.102;2023-06-24T05:21:08;8.20;;;5.30;;
27889;SDS011;15238;49.082;9.102;2023-06-24T05:23:08;6.72;;;4.70;;
27889;SDS011;15238;49.082;9.102;2023-06-24T05:25:09;6.65;;;4.63;;
27889;SDS011;15238;49.082;9.102;2023-06-24T05:27:09;7.47;;;5.63;;
27889;SDS011;15238;49.082;9.102;2023-06-24T05:29:10;7.03;;;5.47;;
27889;SDS011;15238;49.082;9.102;2023-06-24T05:31:11;8.27;;;5.32;;
27889;SDS011;15238;49.082;9.102;2023-06-24T05:33:12;6.55;;;4.68;;
27889;SDS011;15238;49.082;9.102;2023-06-24T05:35:12;6.65;;;4.47;;
27889;SDS011;15238;49.082;9.102;2023-06-24T05:37:13;5.45;;;4.47;;
27889;SDS011;15238;49.082;9.102;2023-06-24T05:39:14;6.95;;;5.00;;
27889;SDS011;15238;49.082;9.102;2023-06-24T05:41:15;7.43;;;4.90;;
27889;SDS011;15238;49.082;9.102;2023-06-24T05:43:15;5.22;;;4.45;;
27889;SDS011;15238;49.082;9.102;2023-06-24T05:45:16;6.18;;;5.10;;
27889;SDS011;15238;49.082;9.102;2023-06-24T05:47:16;6.05;;;4.95;;
27889;SDS011;15238;49.082;9.102;2023-06-24T05:49:17;9.13;;;4.72;;
27889;SDS011;15238;49.082;9.102;2023-06-24T05:51:17;8.30;;;5.07;;
27889;SDS011;15238;49.082;9.102;2023-06-24T05:53:18;7.28;;;4.95;;
27889;SDS011;15238;49.082;9.102;2023-06-24T05:55:18;7.80;;;4.70;;
27889;SDS011;15238;49.082;9.102;2023-06-24T05:57:19;14.70;;;5.03;;
27889;SDS011;15238;49.082;9.102;2023-06-24T05:59:20;5.47;;;4.20;;
27889;SDS011;15238;49.082;9.102;2023-06-24T06:01:20;7.15;;;4.55;;
27889;SDS011;15238;49.082;9.102;2023-06-24T06:03:21;9.23;;;4.40;;
27889;SDS011;15238;49.082;9.102;2023-06-24T06:05:21;6.25;;;4.68;;
27889;SDS011;15238;49.082;9.102;2023-06-24T06:07:22;6.93;;;4.65;;
27889;SDS011;15238;49.082;9.102;2023-06-24T06:09:22;4.95;;;4.20;;
27889;SDS011;15238;49.082;9.102;2023-06-24T06:11:23;7.85;;;4.25;;
27889;SDS011;15238;49.082;9.102;2023-06-24T06:13:23;4.78;;;4.20;;
27889;SDS011;15238;49.082;9.102;2023-06-24T06:15:24;7.55;;;4.50;;
27889;SDS011;15238;49.082;9.102;2023-06-24T06:17:24;6.47;;;4.35;;
27889;SDS011;15238;49.082;9.102;2023-06-24T06:19:25;5.53;;;4.18;;
27889;SDS011;15238;49.082;9.102;2023-06-24T06:21:25;6.13;;;4.20;;
27889;SDS011;15238;49.082;9.102;2023-06-24T06:23:26;6.43;;;4.63;;
27889;SDS011;15238;49.082;9.102;2023-06-24T06:25:27;5.18;;;4.10;;
27889;SDS011;15238;49.082;9.102;2023-06-24T06:27:27;7.90;;;4.80;;
27889;SDS011;15238;49.082;9.102;2023-06-24T06:29:28;5.65;;;4.47;;
27889;SDS011;15238;49.082;9.102;2023-06-24T06:31:28;4.68;;;4.18;;
27889;SDS011;15238;49.082;9.102;2023-06-24T06:33:29;4.93;;;4.35;;
27889;SDS011;15238;49.082;9.102;2023-06-24T06:35:29;6.53;;;4.47;;
27889;SDS011;15238;49.082;9.102;2023-06-24T06:37:30;7.10;;;4.30;;
27889;SDS011;15238;49.082;9.102;2023-06-24T06:39:31;6.55;;;4.00;;
27889;SDS011;15238;49.082;9.102;2023-06-24T06:41:31;7.93;;;3.88;;
27889;SDS011;15238;49.082;9.102;2023-06-24T06:43:32;5.70;;;4.57;;
27889;SDS011;15238;49.082;9.102;2023-06-24T06:45:33;6.35;;;4.93;;
27889;SDS011;15238;49.082;9.102;2023-06-24T06:47:34;6.18;;;4.30;;
27889;SDS011;15238;49.082;9.102;2023-06-24T06:49:34;5.38;;;4.50;;
27889;SDS011;15238;49.082;9.102;2023-06-24T06:51:35;8.73;;;4.40;;
27889;SDS011;15238;49.082;9.102;2023-06-24T06:53:36;5.63;;;4.22;;
27889;SDS011;15238;49.082;9.102;2023-06-24T06:55:37;8.55;;;4.80;;
27889;SDS011;15238;49.082;9.102;2023-06-24T06:57:39;8.95;;;4.18;;
27889;SDS011;15238;49.082;9.102;2023-06-24T06:59:39;8.45;;;4.28;;
27889;SDS011;15238;49.082;9.102;2023-06-24T07:01:40;6.05;;;4.22;;
27889;SDS011;15238;49.082;9.102;2023-06-24T07:03:41;7.30;;;4.30;;
27889;SDS011;15238;49.082;9.102;2023-06-24T07:05:41;6.85;;;4.57;;
27889;SDS011;15238;49.082;9.102;2023-06-24T07:07:42;7.90;;;4.47;;
27889;SDS011;15238;49.082;9.102;2023-06-24T07:09:45;5.72;;;4.47;;
27889;SDS011;15238;49.082;9.102;2023-06-24T07:11:47;6.82;;;4.40;;
27889;SDS011;15238;49.082;9.102;2023-06-24T07:13:48;7.03;;;4.30;;
27889;SDS011;15238;49.082;9.102;2023-06-24T07:15:50;6.80;;;4.85;;
27889;SDS011;15238;49.082;9.102;2023-06-24T07:17:51;5.38;;;4.32;;
27889;SDS011;15238;49.082;9.102;2023-06-24T07:19:53;5.53;;;4.07;;
27889;SDS011;15238;49.082;9.102;2023-06-24T07:21:53;6.03;;;4.45;;
27889;SDS011;15238;49.082;9.102;2023-06-24T07:23:54;5.07;;;3.85;;
27889;SDS011;15238;49.082;9.102;2023-06-24T07:25:54;5.68;;;4.07;;
27889;SDS011;15238;49.082;9.102;2023-06-24T07:27:55;5.63;;;4.32;;
27889;SDS011;15238;49.082;9.102;2023-06-24T07:29:55;5.13;;;4.22;;
27889;SDS011;15238;49.082;9.102;2023-06-24T07:31:56;5.30;;;4.15;;
27889;SDS011;15238;49.082;9.102;2023-06-24T07:33:56;4.28;;;3.80;;
27889;SDS011;15238;49.082;9.102;2023-06-24T07:35:57;11.50;;;4.45;;
27889;SDS011;15238;49.082;9.102;2023-06-24T07:37:58;8.00;;;4.28;;
27889;SDS011;15238;49.082;9.102;2023-06-24T07:39:59;5.55;;;4.18;;
27889;SDS011;15238;49.082;9.102;2023-06-24T07:41:59;6.57;;;4.28;;
27889;SDS011;15238;49.082;9.102;2023-06-24T07:44:00;5.22;;;3.58;;
27889;SDS011;15238;49.082;9.102;2023-06-24T07:46:01;5.53;;;4.43;;
27889;SDS011;15238;49.082;9.102;2023-06-24T07:48:02;4.85;;;4.28;;
27889;SDS011;15238;49.082;9.102;2023-06-24T07:50:03;4.97;;;4.07;;
27889;SDS011;15238;49.082;9.102;2023-06-24T07:52:05;7.97;;;4.03;;
27889;SDS011;15238;49.082;9.102;2023-06-24T07:54:06;4.15;;;3.75;;
27889;SDS011;15238;49.082;9.102;2023-06-24T07:56:07;5.80;;;4.20;;
27889;SDS011;15238;49.082;9.102;2023-06-24T07:58:07;4.25;;;3.45;;
27889;SDS011;15238;49.082;9.102;2023-06-24T08:00:08;5.60;;;3.65;;
27889;SDS011;15238;49.082;9.102;2023-06-24T08:02:09;6.20;;;3.35;;
27889;SDS011;15238;49.082;9.102;2023-06-24T08:04:10;8.40;;;3.50;;
27889;SDS011;15238;49.082;9.102;2023-06-24T08:06:10;8.20;;;4.22;;
27889;SDS011;15238;49.082;9.102;2023-06-24T08:08:11;5.70;;;3.45;;
27889;SDS011;15238;49.082;9.102;2023-06-24T08:10:11;4.85;;;3.15;;
27889;SDS011;15238;49.082;9.102;2023-06-24T08:12:12;6.05;;;3.40;;
27889;SDS011;15238;49.082;9.102;2023-06-24T08:14:13;10.90;;;4.03;;
27889;SDS011;15238;49.082;9.102;2023-06-24T08:16:15;5.07;;;3.53;;
27889;SDS011;15238;49.082;9.102;2023-06-24T08:18:17;3.60;;;3.30;;
27889;SDS011;15238;49.082;9.102;2023-06-24T08:20:17;4.10;;;3.30;;
27889;SDS011;15238;49.082;9.102;2023-06-24T08:22:18;4.65;;;3.72;;
27889;SDS011;15238;49.082;9.102;2023-06-24T08:24:18;3.70;;;3.35;;
27889;SDS011;15238;49.082;9.102;2023-06-24T08:26:19;3.30;;;3.00;;
27889;SDS011;15238;49.082;9.102;2023-06-24T08:28:21;3.63;;;3.28;;
27889;SDS011;15238;49.082;9.102;2023-06-24T08:30:21;5.13;;;3.25;;
27889;SDS011;15238;49.082;9.102;2023-06-24T08:32:22;5.22;;;3.10;;
27889;SDS011;15238;49.082;9.102;2023-06-24T08:34:22;4.68;;;3.22;;
27889;SDS011;15238;49.082;9.102;2023-06-24T08:36:23;4.57;;;3.40;;
27889;SDS011;15238;49.082;9.102;2023-06-24T08:38:24;4.03;;;3.25;;
27889;SDS011;15238;49.082;9.102;2023-06-24T08:40:24;3.97;;;3.17;;
27889;SDS011;15238;49.082;9.102;2023-06-24T08:42:25;4.18;;;3.53;;
27889;SDS011;15238;49.082;9.102;2023-06-24T08:44:26;3.95;;;2.97;;
27889;SDS011;15238;49.082;9.102;2023-06-24T08:46:26;4.47;;;3.83;;
27889;SDS011;15238;49.082;9.102;2023-06-24T08:48:27;3.30;;;3.00;;
27889;SDS011;15238;49.082;9.102;2023-06-24T08:50:40;5.97;;;3.40;;
27889;SDS011;15238;49.082;9.102;2023-06-24T08:52:51;6.60;;;3.30;;
27889;SDS011;15238;49.082;9.102;2023-06-24T08:54:52;3.92;;;3.30;;
27889;SDS011;15238;49.082;9.102;2023-06-24T08:56:57;4.95;;;3.35;;
27889;SDS011;15238;49.082;9.102;2023-06-24T08:58:57;3.22;;;2.92;;
27889;SDS011;15238;49.082;9.102;2023-06-24T09:00:59;4.78;;;3.65;;
27889;SDS011;15238;49.082;9.102;2023-06-24T09:03:00;6.22;;;3.63;;
27889;SDS011;15238;49.082;9.102;2023-06-24T09:05:01;4.32;;;3.45;;
27889;SDS011;15238;49.082;9.102;2023-06-24T09:07:01;4.25;;;2.80;;
27889;SDS011;15238;49.082;9.102;2023-06-24T09:09:03;4.22;;;2.90;;
27889;SDS011;15238;49.082;9.102;2023-06-24T09:11:04;5.45;;;2.90;;
27889;SDS011;15238;49.082;9.102;2023-06-24T09:13:08;4.32;;;3.60;;
27889;SDS011;15238;49.082;9.102;2023-06-24T09:15:09;4.55;;;2.90;;
27889;SDS011;15238;49.082;9.102;2023-06-24T09:17:15;3.85;;;3.10;;
27889;SDS011;15238;49.082;9.102;2023-06-24T09:19:19;9.52;;;3.75;;
27889;SDS011;15238;49.082;9.102;2023-06-24T09:21:26;3.70;;;2.78;;
27889;SDS011;15238;49.082;9.102;2023-06-24T09:23:33;4.38;;;3.20;;
27889;SDS011;15238;49.082;9.102;2023-06-24T09:25:36;4.20;;;2.80;;
27889;SDS011;15238;49.082;9.102;2023-06-24T09:27:37;4.32;;;2.90;;
27889;SDS011;15238;49.082;9.102;2023-06-24T09:29:37;4.18;;;2.70;;
27889;SDS011;15238;49.082;9.102;2023-06-24T09:31:48;3.28;;;2.53;;
27889;SDS011;15238;49.082;9.102;2023-06-24T09:33:49;3.95;;;2.97;;
27889;SDS011;15238;49.082;9.102;2023-06-24T09:35:49;2.75;;;2.47;;
27889;SDS011;15238;49.082;9.102;2023-06-24T09:37:51;4.95;;;2.70;;
27889;SDS011;15238;49.082;9.102;2023-06-24T09:39:52;3.30;;;2.85;;
27889;SDS011;15238;49.082;9.102;2023-06-24T09:41:54;3.38;;;2.80;;
27889;SDS011;15238;49.082;9.102;2023-06-24T09:43:58;4.50;;;2.80;;
27889;SDS011;15238;49.082;9.102;2023-06-24T09:45:59;5.30;;;2.65;;
27889;SDS011;15238;49.082;9.102;2023-06-24T09:48:01;4.95;;;2.85;;
27889;SDS011;15238;49.082;9.102;2023-06-24T09:50:02;3.85;;;3.00;;
27889;SDS011;15238;49.082;9.102;2023-06-24T09:52:04;4.10;;;2.85;;
27889;SDS011;15238;49.082;9.102;2023-06-24T09:54:06;3.15;;;2.65;;
27889;SDS011;15238;49.082;9.102;2023-06-24T09:56:07;3.03;;;2.30;;
27889;SDS011;15238;49.082;9.102;2023-06-24T09:58:09;3.65;;;2.80;;
27889;SDS011;15238;49.082;9.102;2023-06-24T10:00:12;3.28;;;2.90;;
27889;SDS011;15238;49.082;9.102;2023-06-24T10:02:15;4.70;;;2.58;;
27889;SDS011;15238;49.082;9.102;2023-06-24T10:04:18;4.47;;;3.00;;
27889;SDS011;15238;49.082;9.102;2023-06-24T10:06:19;3.53;;;2.67;;
27889;SDS011;15238;49.082;9.102;2023-06-24T10:08:20;4.13;;;3.22;;
27889;SDS011;15238;49.082;9.102;2023-06-24T10:10:21;4.43;;;3.03;;
27889;SDS011;15238;49.082;9.102;2023-06-24T10:12:21;3.88;;;2.95;;
27889;SDS011;15238;49.082;9.102;2023-06-24T10:14:22;4.55;;;2.80;;
27889;SDS011;15238;49.082;9.102;2023-06-24T10:16:22;6.50;;;3.08;;
27889;SDS011;15238;49.082;9.102;2023-06-24T10:20:36;3.00;;;2.70;;
27889;SDS011;15238;49.082;9.102;2023-06-24T10:22:38;5.15;;;2.80;;
27889;SDS011;15238;49.082;9.102;2023-06-24T10:24:39;3.65;;;2.80;;
27889;SDS011;15238;49.082;9.102;2023-06-24T10:26:42;3.67;;;2.58;;
27889;SDS011;15238;49.082;9.102;2023-06-24T10:31:04;3.53;;;2.67;;
27889;SDS011;15238;49.082;9.102;2023-06-24T10:33:09;6.18;;;2.70;;
27889;SDS011;15238;49.082;9.102;2023-06-24T10:35:23;3.97;;;2.50;;
27889;SDS011;15238;49.082;9.102;2023-06-24T10:37:30;5.03;;;2.83;;
27889;SDS011;15238;49.082;9.102;2023-06-24T10:39:36;2.80;;;2.60;;
27889;SDS011;15238;49.082;9.102;2023-06-24T10:41:48;3.22;;;2.90;;
27889;SDS011;15238;49.082;9.102;2023-06-24T10:43:49;3.72;;;2.80;;
27889;SDS011;15238;49.082;9.102;2023-06-24T10:45:49;6.60;;;2.90;;
27889;SDS011;15238;49.082;9.102;2023-06-24T10:47:54;3.40;;;2.90;;
27889;SDS011;15238;49.082;9.102;2023-06-24T10:49:59;2.47;;;2.28;;
27889;SDS011;15238;49.082;9.102;2023-06-24T10:52:00;4.25;;;3.30;;
27889;SDS011;15238;49.082;9.102;2023-06-24T10:54:00;3.22;;;2.75;;
27889;SDS011;15238;49.082;9.102;2023-06-24T10:56:01;3.58;;;3.25;;
27889;SDS011;15238;49.082;9.102;2023-06-24T10:58:08;3.60;;;2.53;;
27889;SDS011;15238;49.082;9.102;2023-06-24T11:00:12;4.22;;;2.65;;
27889;SDS011;15238;49.082;9.102;2023-06-24T11:02:14;4.13;;;2.78;;
27889;SDS011;15238;49.082;9.102;2023-06-24T11:04:16;5.45;;;2.45;;
27889;SDS011;15238;49.082;9.102;2023-06-24T11:06:17;3.70;;;2.42;;
27889;SDS011;15238;49.082;9.102;2023-06-24T11:08:17;3.15;;;2.50;;
27889;SDS011;15238;49.082;9.102;2023-06-24T11:10:18;4.30;;;3.00;;
27889;SDS011;15238;49.082;9.102;2023-06-24T11:12:19;3.28;;;2.80;;
27889;SDS011;15238;49.082;9.102;2023-06-24T11:14:23;3.20;;;2.58;;
27889;SDS011;15238;49.082;9.102;2023-06-24T11:16:23;3.90;;;2.60;;
27889;SDS011;15238;49.082;9.102;2023-06-24T11:18:24;5.10;;;2.38;;
27889;SDS011;15238;49.082;9.102;2023-06-24T11:20:25;3.08;;;2.70;;
27889;SDS011;15238;49.082;9.102;2023-06-24T11:22:26;3.17;;;2.50;;
27889;SDS011;15238;49.082;9.102;2023-06-24T11:24:29;3.00;;;2.20;;
27889;SDS011;15238;49.082;9.102;2023-06-24T11:26:30;3.70;;;2.75;;
27889;SDS011;15238;49.082;9.102;2023-06-24T11:28:31;2.60;;;2.40;;
27889;SDS011;15238;49.082;9.102;2023-06-24T11:30:35;2.40;;;2.20;;
27889;SDS011;15238;49.082;9.102;2023-06-24T11:32:36;2.95;;;2.42;;
27889;SDS011;15238;49.082;9.102;2023-06-24T11:34:40;2.97;;;2.58;;
27889;SDS011;15238;49.082;9.102;2023-06-24T11:36:41;3.80;;;2.70;;
27889;SDS011;15238;49.082;9.102;2023-06-24T11:38:41;2.70;;;2.50;;
27889;SDS011;15238;49.082;9.102;2023-06-24T11:40:42;3.67;;;2.63;;
27889;SDS011;15238;49.082;9.102;2023-06-24T11:42:43;2.53;;;2.33;;
27889;SDS011;15238;49.082;9.102;2023-06-24T11:44:45;3.88;;;2.20;;
27889;SDS011;15238;49.082;9.102;2023-06-24T11:46:45;2.88;;;2.67;;
27889;SDS011;15238;49.082;9.102;2023-06-24T11:48:46;3.17;;;2.60;;
27889;SDS011;15238;49.082;9.102;2023-06-24T11:50:52;3.40;;;2.03;;
27889;SDS011;15238;49.082;9.102;2023-06-24T11:52:54;2.90;;;2.58;;
27889;SDS011;15238;49.082;9.102;2023-06-24T11:54:55;4.90;;;2.22;;
27889;SDS011;15238;49.082;9.102;2023-06-24T11:56:55;3.42;;;2.40;;
27889;SDS011;15238;49.082;9.102;2023-06-24T11:58:56;2.90;;;2.10;;
27889;SDS011;15238;49.082;9.102;2023-06-24T12:00:57;2.00;;;1.85;;
27889;SDS011;15238;49.082;9.102;2023-06-24T12:02:58;3.97;;;2.25;;
27889;SDS011;15238;49.082;9.102;2023-06-24T12:05:04;2.63;;;2.25;;
27889;SDS011;15238;49.082;9.102;2023-06-24T12:07:05;4.45;;;2.40;;
27889;SDS011;15238;49.082;9.102;2023-06-24T12:09:06;2.42;;;2.08;;
27889;SDS011;15238;49.082;9.102;2023-06-24T12:11:07;2.97;;;2.13;;
27889;SDS011;15238;49.082;9.102;2023-06-24T12:13:07;4.47;;;2.30;;
27889;SDS011;15238;49.082;9.102;2023-06-24T12:15:11;5.47;;;2.40;;
27889;SDS011;15238;49.082;9.102;2023-06-24T12:17:13;2.85;;;2.25;;
27889;SDS011;15238;49.082;9.102;2023-06-24T12:19:14;2.10;;;1.90;;
27889;SDS011;15238;49.082;9.102;2023-06-24T12:21:14;3.08;;;2.53;;
27889;SDS011;15238;49.082;9.102;2023-06-24T12:23:14;2.83;;;2.63;;
27889;SDS011;15238;49.082;9.102;2023-06-24T12:25:16;3.42;;;2.42;;
27889;SDS011;15238;49.082;9.102;2023-06-24T12:27:17;3.58;;;2.45;;
27889;SDS011;15238;49.082;9.102;2023-06-24T12:29:17;5.72;;;2.60;;